Time;durP1;ratioP1;P1;durP2;ratioP2;P2;SDS_P1;SDS_P2;PMS_P1;PMS_P2;Temp;Humidity;BMP_temperature;BMP_pressure;BME280_temperature;BME280_humidity;BME280_pressure;Samples;Min_cycle;Max_cycle;Signal;HPM_P1;HPM_P2
2021/08/13 00:01:16;;;;;;;16.48;8.00;;;21.50;1.00;;;;;;5097912;27;20047;-75
2021/08/13 00:04:05;;;;;;;12.25;7.40;;;21.40;1.00;;;;;;5108878;27;20061;-75
2021/08/13 00:06:53;;;;;;;9.32;7.05;;;21.20;1.00;;;;;;5113270;27;20487;-75
2021/08/13 00:09:42;;;;;;;12.60;7.90;;;21.10;1.00;;;;;;5112578;27;20043;-75
2021/08/13 00:12:32;;;;;;;10.98;7.53;;;21.10;1.20;;;;;;5115610;27;20490;-75
2021/08/13 00:15:20;;;;;;;15.55;7.78;;;21.00;2.00;;;;;;5105419;27;20039;-75
2021/08/13 00:18:08;;;;;;;10.10;7.25;;;21.00;2.90;;;;;;5115114;27;20043;-74
2021/08/13 00:20:57;;;;;;;13.35;7.70;;;20.80;3.90;;;;;;5112605;27;20042;-75
2021/08/13 00:23:45;;;;;;;10.55;7.22;;;20.80;5.00;;;;;;5112784;27;20050;-75
2021/08/13 00:26:33;;;;;;;8.88;6.88;;;20.70;5.80;;;;;;5110511;27;20047;-75
2021/08/13 00:29:23;;;;;;;12.13;7.15;;;20.60;7.20;;;;;;5106064;27;20053;-76
2021/08/13 00:32:12;;;;;;;11.00;7.93;;;20.50;8.00;;;;;;5091813;27;20111;-75
2021/08/13 00:35:02;;;;;;;10.07;7.22;;;20.50;9.00;;;;;;5113073;27;20051;-75
2021/08/13 00:37:50;;;;;;;12.02;7.00;;;20.50;9.60;;;;;;5089973;27;20629;-76
2021/08/13 00:40:38;;;;;;;12.45;7.63;;;20.50;9.40;;;;;;5102537;27;20043;-76
2021/08/13 00:43:28;;;;;;;11.20;8.18;;;20.60;9.30;;;;;;5088071;27;20056;-76
2021/08/13 00:46:18;;;;;;;15.65;7.78;;;20.70;8.70;;;;;;5102556;27;20858;-75
2021/08/13 00:49:18;;;;;;;9.80;7.45;;;20.70;7.10;;;;;;5081972;28;20063;-75
2021/08/13 00:52:11;;;;;;;11.35;8.20;;;20.70;7.60;;;;;;5097606;27;20058;-75
2021/08/13 00:55:00;;;;;;;13.77;7.72;;;20.80;6.90;;;;;;5094436;27;20042;-75
2021/08/13 00:58:11;;;;;;;17.45;8.00;;;20.90;6.50;;;;;;5107095;27;20374;-75
2021/08/13 01:01:10;;;;;;;11.90;7.95;;;21.00;5.90;;;;;;5090468;27;20062;-76
2021/08/13 01:04:00;;;;;;;15.32;8.43;;;20.90;5.90;;;;;;5115998;27;20043;-75
2021/08/13 01:06:50;;;;;;;10.38;7.88;;;20.90;5.70;;;;;;5093963;27;20051;-75
2021/08/13 01:09:40;;;;;;;11.15;7.53;;;20.90;5.70;;;;;;5095202;27;20104;-75
2021/08/13 01:12:33;;;;;;;11.13;7.80;;;20.90;5.40;;;;;;5081999;28;20052;-75
2021/08/13 01:15:26;;;;;;;;;;;20.80;5.10;;;;;;5087994;28;20120;-76
2021/08/13 01:18:18;;;;;;;10.60;7.68;;;20.80;5.00;;;;;;5090505;28;19928;-76
2021/08/13 01:21:36;;;;;;;13.57;8.88;;;20.80;5.40;;;;;;5102019;28;20044;-75
2021/08/13 01:24:28;;;;;;;11.75;7.78;;;20.70;5.40;;;;;;5088310;28;20548;-75
2021/08/13 01:27:19;;;;;;;15.80;8.68;;;20.80;6.60;;;;;;5103831;27;20081;-75
2021/08/13 01:30:10;;;;;;;17.23;9.80;;;20.80;5.90;;;;;;5083398;27;20043;-75
2021/08/13 01:33:13;;;;;;;12.90;8.32;;;20.80;5.80;;;;;;5095686;27;20056;-76
2021/08/13 01:36:07;;;;;;;10.98;8.23;;;20.80;6.10;;;;;;5087584;28;20032;-76
2021/08/13 01:39:00;;;;;;;13.27;8.75;;;20.80;6.40;;;;;;5086292;28;20043;-76
2021/08/13 01:41:50;;;;;;;13.80;8.63;;;20.70;6.80;;;;;;5090030;27;20054;-76
2021/08/13 01:44:40;;;;;;;11.80;7.95;;;20.70;7.70;;;;;;5087655;27;20414;-76
2021/08/13 01:47:30;;;;;;;12.43;9.45;;;20.60;7.60;;;;;;5091274;27;20522;-76
2021/08/13 01:50:21;;;;;;;14.27;10.32;;;20.60;7.60;;;;;;5104655;27;20047;-76
2021/08/13 01:53:14;;;;;;;16.27;9.38;;;20.80;7.70;;;;;;5090260;28;20597;-76
2021/08/13 01:56:04;;;;;;;17.30;10.23;;;20.80;7.00;;;;;;5088781;27;20047;-76
2021/08/13 01:58:56;;;;;;;15.13;10.43;;;20.80;7.30;;;;;;5095260;27;20097;-76
2021/08/13 02:01:46;;;;;;;13.02;9.70;;;20.80;7.40;;;;;;5084973;28;20085;-76
2021/08/13 02:04:39;;;;;;;15.38;9.43;;;20.70;7.60;;;;;;5060470;28;20047;-76
2021/08/13 02:07:32;;;;;;;12.50;9.38;;;20.70;8.20;;;;;;5087829;27;20064;-76
2021/08/13 02:10:25;;;;;;;;;;;20.80;7.70;;;;;;5080280;28;20044;-76
2021/08/13 02:13:15;;;;;;;15.93;10.20;;;20.80;7.70;;;;;;5091412;28;19919;-76
2021/08/13 02:16:10;;;;;;;18.10;10.82;;;20.70;7.80;;;;;;5087783;28;20084;-76
2021/08/13 02:19:04;;;;;;;15.93;10.30;;;20.60;8.40;;;;;;5087527;28;20506;-76
2021/08/13 02:21:56;;;;;;;14.90;10.55;;;20.60;9.00;;;;;;5090088;28;20050;-76
2021/08/13 02:24:46;;;;;;;15.23;10.15;;;20.70;8.90;;;;;;5087660;28;20122;-76
2021/08/13 02:27:36;;;;;;;18.67;9.98;;;20.70;9.10;;;;;;5108668;28;20051;-76
2021/08/13 02:30:27;;;;;;;12.85;10.20;;;20.60;9.70;;;;;;5101379;28;20189;-76
2021/08/13 02:33:18;;;;;;;15.45;9.93;;;20.70;10.70;;;;;;5086444;28;20044;-76
2021/08/13 02:36:14;;;;;;;16.08;10.07;;;20.80;13.50;;;;;;5086637;28;20048;-76
2021/08/13 02:39:10;;;;;;;13.30;10.68;;;20.60;15.00;;;;;;5084085;28;20043;-76
2021/08/13 02:42:05;;;;;;;16.50;10.73;;;20.60;16.00;;;;;;5096451;28;20043;-76
2021/08/13 02:44:58;;;;;;;14.43;8.85;;;20.40;19.40;;;;;;5096000;28;20101;-76
2021/08/13 02:47:54;;;;;;;16.50;10.38;;;20.30;20.50;;;;;;5089015;28;20039;-76
2021/08/13 02:50:45;;;;;;;13.18;9.68;;;20.30;22.10;;;;;;5087934;28;20044;-76
2021/08/13 02:53:38;;;;;;;15.85;10.23;;;20.30;20.00;;;;;;5089022;28;20101;-76
2021/08/13 02:56:31;;;;;;;16.53;10.23;;;20.30;20.40;;;;;;5092429;28;20499;-76
2021/08/13 02:59:23;;;;;;;14.05;10.50;;;20.40;20.70;;;;;;5092533;28;20317;-76
2021/08/13 03:02:12;;;;;;;14.25;9.65;;;20.30;19.50;;;;;;5090094;28;20067;-76
2021/08/13 03:05:05;;;;;;;12.52;10.13;;;20.40;19.90;;;;;;5090715;28;20070;-76
2021/08/13 03:07:55;;;;;;;14.95;10.18;;;20.40;20.90;;;;;;5092258;28;20124;-75
2021/08/13 03:10:43;;;;;;;15.50;10.00;;;20.30;20.30;;;;;;5092681;27;20554;-75
2021/08/13 03:13:36;;;;;;;14.77;9.57;;;20.40;19.40;;;;;;5097995;27;20095;-75
2021/08/13 03:16:26;;;;;;;14.63;9.93;;;20.30;19.30;;;;;;5089348;27;20066;-75
2021/08/13 03:19:15;;;;;;;17.73;9.95;;;20.30;20.50;;;;;;5090557;27;20043;-75
2021/08/13 03:22:06;;;;;;;13.98;9.93;;;20.30;20.00;;;;;;5091340;27;20069;-75
2021/08/13 03:24:55;;;;;;;15.82;10.18;;;20.50;19.50;;;;;;5099665;27;20414;-75
2021/08/13 03:27:44;;;;;;;12.77;10.00;;;20.50;19.60;;;;;;5097963;27;20047;-75
2021/08/13 03:30:38;;;;;;;14.25;9.75;;;20.50;20.80;;;;;;5092466;27;20073;-75
2021/08/13 03:33:29;;;;;;;14.27;9.90;;;20.60;19.90;;;;;;5093697;28;20046;-75
2021/08/13 03:36:18;;;;;;;13.40;9.55;;;20.60;21.20;;;;;;5115103;27;20503;-75
2021/08/13 03:39:09;;;;;;;13.65;9.10;;;20.40;19.40;;;;;;5098602;27;20051;-75
2021/08/13 03:41:59;;;;;;;15.40;9.85;;;20.30;20.40;;;;;;5095000;27;20051;-75
2021/08/13 03:44:49;;;;;;;13.32;9.95;;;20.10;22.00;;;;;;5090747;28;20050;-75
2021/08/13 03:47:37;;;;;;;14.52;9.18;;;20.20;22.00;;;;;;5080709;28;20132;-75
2021/08/13 03:50:29;;;;;;;15.38;9.95;;;20.10;22.00;;;;;;5097638;27;21011;-75
2021/08/13 03:53:17;;;;;;;11.93;9.25;;;20.10;24.60;;;;;;5098840;28;20055;-75
2021/08/13 03:56:06;;;;;;;15.43;10.15;;;20.00;25.20;;;;;;5079665;27;20051;-75
2021/08/13 03:58:56;;;;;;;15.27;8.85;;;20.10;27.20;;;;;;5112417;27;20627;-75
2021/08/13 04:01:45;;;;;;;15.50;9.57;;;20.20;26.70;;;;;;5114695;27;20044;-75
2021/08/13 04:04:33;;;;;;;15.02;10.68;;;20.30;27.60;;;;;;5115404;27;20474;-75
2021/08/13 04:07:23;;;;;;;13.52;10.13;;;20.30;29.10;;;;;;5109045;27;20122;-75
2021/08/13 04:10:13;;;;;;;14.65;9.65;;;20.40;29.00;;;;;;5078962;28;20055;-75
2021/08/13 04:13:03;;;;;;;16.95;10.98;;;20.30;28.80;;;;;;5116216;27;20158;-76
2021/08/13 04:15:57;;;;;;;17.00;10.90;;;20.50;30.00;;;;;;5091702;27;20058;-76
2021/08/13 04:18:46;;;;;;;15.50;10.55;;;20.50;30.40;;;;;;5092529;27;20522;-76
2021/08/13 04:21:35;;;;;;;13.77;10.43;;;20.40;30.00;;;;;;5082024;28;20052;-76
2021/08/13 04:24:25;;;;;;;16.67;10.50;;;20.40;31.00;;;;;;5102437;27;20494;-76
2021/08/13 04:27:13;;;;;;;15.07;9.98;;;20.30;29.60;;;;;;5088514;27;20039;-76
2021/08/13 04:30:02;;;;;;;16.08;11.63;;;20.40;31.80;;;;;;5088414;28;20039;-76
2021/08/13 04:32:52;;;;;;;14.88;10.80;;;20.40;29.20;;;;;;5089085;27;20054;-76
2021/08/13 04:35:41;;;;;;;13.95;10.25;;;20.40;27.90;;;;;;5108775;27;20499;-76
2021/08/13 04:38:30;;;;;;;12.55;10.02;;;20.30;26.60;;;;;;5095087;27;20158;-76
2021/08/13 04:41:20;;;;;;;14.75;10.38;;;20.30;27.10;;;;;;5090214;27;20070;-75
2021/08/13 04:44:08;;;;;;;17.80;10.50;;;20.10;31.80;;;;;;5095087;27;20046;-75
2021/08/13 04:46:59;;;;;;;16.70;11.20;;;19.60;38.70;;;;;;5092996;27;20043;-76
2021/08/13 04:49:48;;;;;;;17.10;10.90;;;19.60;43.50;;;;;;5091353;27;20446;-76
2021/08/13 04:52:43;;;;;;;18.40;11.25;;;19.20;45.10;;;;;;5097081;27;20081;-76
2021/08/13 04:55:32;;;;;;;17.65;12.13;;;19.10;48.90;;;;;;5096385;27;20204;-76
2021/08/13 04:58:23;;;;;;;18.63;11.40;;;19.10;49.30;;;;;;5111268;27;20481;-76
2021/08/13 05:01:15;;;;;;;19.63;11.45;;;19.20;49.40;;;;;;5107538;27;20486;-76
2021/08/13 05:04:06;;;;;;;19.15;11.43;;;19.00;49.80;;;;;;5093884;27;20055;-76
2021/08/13 05:06:54;;;;;;;17.45;11.40;;;19.00;50.50;;;;;;5092536;27;20091;-76
2021/08/13 05:09:43;;;;;;;16.08;11.52;;;19.00;51.00;;;;;;5091284;27;20054;-75
2021/08/13 05:12:31;;;;;;;19.30;11.75;;;18.90;50.90;;;;;;5110089;27;20421;-75
2021/08/13 05:15:21;;;;;;;17.67;12.40;;;18.80;51.90;;;;;;5086348;28;20135;-75
2021/08/13 05:18:10;;;;;;;18.02;11.50;;;18.80;51.40;;;;;;5096901;28;20058;-76
2021/08/13 05:20:59;;;;;;;16.65;12.38;;;18.80;52.10;;;;;;5088973;27;20040;-76
2021/08/13 05:23:48;;;;;;;16.58;11.25;;;18.90;51.40;;;;;;5089304;28;20047;-75
2021/08/13 05:26:40;;;;;;;15.88;10.90;;;18.80;50.90;;;;;;5069162;28;20127;-75
2021/08/13 05:29:28;;;;;;;17.02;11.65;;;18.90;50.80;;;;;;5104667;27;20057;-75
2021/08/13 05:32:18;;;;;;;18.90;12.23;;;18.90;50.10;;;;;;5092453;28;20246;-75
2021/08/13 05:35:07;;;;;;;15.80;11.85;;;18.90;50.30;;;;;;5087580;28;20136;-75
2021/08/13 05:37:58;;;;;;;18.40;11.10;;;18.90;49.10;;;;;;5087710;28;20043;-75
2021/08/13 05:40:46;;;;;;;18.58;11.27;;;18.80;48.10;;;;;;5086076;28;20043;-75
2021/08/13 05:43:34;;;;;;;15.20;11.02;;;19.00;48.30;;;;;;5104623;28;20051;-76
2021/08/13 05:46:23;;;;;;;14.63;10.65;;;19.10;49.40;;;;;;5087986;27;20043;-76
2021/08/13 05:49:13;;;;;;;16.20;11.27;;;19.70;45.70;;;;;;5092332;28;20078;-76
2021/08/13 05:52:01;;;;;;;20.00;11.80;;;20.20;36.70;;;;;;5084510;28;20260;-75
2021/08/13 05:54:50;;;;;;;17.55;11.50;;;20.10;36.40;;;;;;5107072;27;20054;-75
2021/08/13 05:57:38;;;;;;;19.25;11.18;;;20.30;35.30;;;;;;5085958;28;20128;-76
2021/08/13 06:00:27;;;;;;;19.88;11.40;;;20.80;29.90;;;;;;5101144;27;20051;-74
2021/08/13 06:03:22;;;;;;;14.48;10.35;;;20.90;28.60;;;;;;5093892;27;20048;-76
2021/08/13 06:06:14;;;;;;;13.68;9.88;;;21.20;25.90;;;;;;5089625;28;20047;-74
2021/08/13 06:09:05;;;;;;;15.88;10.75;;;21.30;21.80;;;;;;5093091;28;20107;-75
2021/08/13 06:11:53;;;;;;;14.32;9.52;;;21.50;19.30;;;;;;5112275;27;20215;-75
2021/08/13 06:14:42;;;;;;;17.60;10.48;;;21.60;18.00;;;;;;5090944;27;20047;-77
2021/08/13 06:17:31;;;;;;;14.48;9.57;;;21.70;17.90;;;;;;5086996;27;20088;-75
2021/08/13 06:20:22;;;;;;;18.42;11.25;;;22.00;16.00;;;;;;5085536;28;20051;-76
2021/08/13 06:23:27;;;;;;;16.65;10.02;;;22.40;12.60;;;;;;5079523;28;20040;-76
2021/08/13 06:26:17;;;;;;;15.38;9.40;;;22.10;13.30;;;;;;5096741;28;20146;-75
2021/08/13 06:29:09;;;;;;;16.80;10.40;;;22.30;11.60;;;;;;5090071;28;20193;-75
2021/08/13 06:31:58;;;;;;;11.73;8.70;;;22.80;9.10;;;;;;5092534;28;20482;-75
2021/08/13 06:34:46;;;;;;;13.90;9.32;;;23.00;7.60;;;;;;5089110;28;20387;-75
2021/08/13 06:37:44;;;;;;;16.63;9.90;;;23.10;8.20;;;;;;5108328;28;20499;-75
2021/08/13 06:40:33;;;;;;;18.02;9.15;;;23.00;7.80;;;;;;5093279;28;20055;-76
2021/08/13 06:43:22;;;;;;;11.88;8.50;;;23.30;6.30;;;;;;5090371;28;20055;-76
2021/08/13 06:46:16;;;;;;;10.90;8.03;;;23.80;3.80;;;;;;5089831;28;20176;-76
2021/08/13 06:49:04;;;;;;;13.65;8.30;;;24.20;1.00;;;;;;5091332;28;20131;-76
2021/08/13 06:51:53;;;;;;;14.57;8.63;;;23.90;1.40;;;;;;5095446;28;20051;-75
2021/08/13 06:54:43;;;;;;;13.30;8.77;;;23.30;4.10;;;;;;5096326;27;20529;-75
2021/08/13 06:57:33;;;;;;;10.63;8.57;;;23.60;4.20;;;;;;5100129;27;20107;-75
2021/08/13 07:00:21;;;;;;;15.88;8.75;;;23.60;3.40;;;;;;5086499;27;20060;-77
2021/08/13 07:03:10;;;;;;;13.13;8.55;;;23.50;3.80;;;;;;5083170;27;20050;-76
2021/08/13 07:06:00;;;;;;;10.05;7.60;;;23.50;2.50;;;;;;5089433;28;20197;-76
2021/08/13 07:08:48;;;;;;;9.88;7.72;;;23.00;2.00;;;;;;5115117;27;20044;-75
2021/08/13 07:11:37;;;;;;;11.45;8.05;;;23.30;2.80;;;;;;5112548;27;20458;-76
2021/08/13 07:14:27;;;;;;;10.07;7.88;;;23.60;1.90;;;;;;5088923;27;20623;-76
2021/08/13 07:17:16;;;;;;;14.43;8.68;;;23.70;1.90;;;;;;5095134;27;20129;-76
2021/08/13 07:20:06;;;;;;;11.45;8.10;;;23.00;1.50;;;;;;5094483;27;20880;-76
2021/08/13 07:22:55;;;;;;;14.80;9.50;;;23.40;3.50;;;;;;5097281;27;20524;-77
2021/08/13 07:25:43;;;;;;;18.23;9.75;;;23.90;4.50;;;;;;5108304;27;20040;-76
2021/08/13 07:28:32;;;;;;;14.25;9.95;;;24.10;5.50;;;;;;5098860;27;20043;-76
2021/08/13 07:31:22;;;;;;;11.85;9.68;;;24.20;3.90;;;;;;5096406;27;20054;-74
2021/08/13 07:34:14;;;;;;;10.23;8.57;;;23.90;4.90;;;;;;5098207;27;20043;-76
2021/08/13 07:37:03;;;;;;;13.30;9.13;;;23.80;5.60;;;;;;5096745;27;20607;-76
2021/08/13 07:40:00;;;;;;;18.25;9.88;;;23.90;4.60;;;;;;5093414;27;20391;-76
2021/08/13 07:42:50;;;;;;;19.00;9.63;;;24.30;3.20;;;;;;5092318;27;20047;-76
2021/08/13 07:45:38;;;;;;;14.13;8.93;;;24.60;2.60;;;;;;5110638;27;20181;-75
2021/08/13 07:48:28;;;;;;;16.30;9.65;;;24.40;2.40;;;;;;5111898;27;20058;-77
2021/08/13 07:51:17;;;;;;;14.88;8.60;;;24.60;2.60;;;;;;5094271;27;20441;-76
2021/08/13 07:54:05;;;;;;;13.57;9.23;;;24.50;1.00;;;;;;5092993;27;20036;-76
2021/08/13 07:56:53;;;;;;;14.77;10.25;;;24.20;2.00;;;;;;5109194;27;20046;-76
2021/08/13 07:59:42;;;;;;;15.45;9.27;;;24.20;1.00;;;;;;5091870;27;20051;-77
2021/08/13 08:02:31;;;;;;;11.25;8.70;;;24.60;1.00;;;;;;5085414;27;20051;-77
2021/08/13 08:05:21;;;;;;;15.57;8.93;;;25.00;1.00;;;;;;5107747;27;20122;-76
2021/08/13 08:08:09;;;;;;;12.98;8.57;;;25.00;1.00;;;;;;5105449;27;20078;-76
2021/08/13 08:10:58;;;;;;;10.65;7.95;;;25.10;1.00;;;;;;5114922;27;20077;-76
2021/08/13 08:13:46;;;;;;;11.75;7.53;;;25.40;1.00;;;;;;5115898;27;20377;-76
2021/08/13 08:16:34;;;;;;;12.35;9.00;;;25.40;1.00;;;;;;5109633;27;20050;-76
2021/08/13 08:19:23;;;;;;;9.50;7.97;;;25.70;1.00;;;;;;5108707;27;20051;-77
2021/08/13 08:22:12;;;;;;;10.68;8.35;;;25.70;1.00;;;;;;5111309;27;20058;-77
2021/08/13 08:25:01;;;;;;;10.73;8.23;;;26.30;1.00;;;;;;5116883;27;20513;-76
2021/08/13 08:27:49;;;;;;;12.35;8.68;;;26.10;1.00;;;;;;5113290;27;20043;-76
2021/08/13 08:30:39;;;;;;;13.18;8.27;;;26.10;1.00;;;;;;5106822;27;20043;-76
2021/08/13 08:33:27;;;;;;;15.68;9.25;;;26.60;1.00;;;;;;5116656;27;20067;-76
2021/08/13 08:36:16;;;;;;;11.98;8.13;;;26.20;1.00;;;;;;5110336;27;20044;-78
2021/08/13 08:39:05;;;;;;;10.13;8.13;;;26.20;1.00;;;;;;5114121;27;20569;-76
2021/08/13 08:41:54;;;;;;;13.75;8.57;;;26.10;1.00;;;;;;5111490;27;20050;-76
2021/08/13 08:44:43;;;;;;;10.55;8.23;;;26.00;1.00;;;;;;5109170;27;20089;-76
2021/08/13 08:47:31;;;;;;;10.55;7.72;;;26.30;1.00;;;;;;5105754;27;20058;-76
2021/08/13 08:50:20;;;;;;;12.77;8.10;;;26.10;1.00;;;;;;5111963;27;20515;-77
2021/08/13 08:53:10;;;;;;;11.88;8.30;;;26.10;1.00;;;;;;5112124;27;20388;-75
2021/08/13 08:56:00;;;;;;;11.43;7.75;;;26.30;1.00;;;;;;5110980;27;20046;-76
2021/08/13 08:58:49;;;;;;;10.23;7.43;;;26.70;1.00;;;;;;5103524;27;20073;-75
2021/08/13 09:01:37;;;;;;;10.95;6.95;;;26.50;1.00;;;;;;5118319;27;20414;-76
2021/08/13 09:04:26;;;;;;;10.45;7.70;;;26.70;1.00;;;;;;5110219;27;20055;-77
2021/08/13 09:07:14;;;;;;;9.80;7.07;;;26.70;1.00;;;;;;5107875;27;20052;-77
2021/08/13 09:10:04;;;;;;;10.60;7.47;;;26.60;1.00;;;;;;5108033;27;20051;-77
2021/08/13 09:12:53;;;;;;;16.08;7.50;;;27.10;1.00;;;;;;5113764;27;20048;-77
2021/08/13 09:15:43;;;;;;;10.90;7.88;;;26.30;1.00;;;;;;5116552;27;20538;-75
2021/08/13 09:18:31;;;;;;;11.02;7.25;;;27.10;1.00;;;;;;5107967;27;20051;-78
2021/08/13 09:21:21;;;;;;;10.30;7.90;;;27.00;1.00;;;;;;5106707;27;20426;-77
2021/08/13 09:24:11;;;;;;;13.77;7.53;;;27.30;1.00;;;;;;5111798;27;20047;-77
2021/08/13 09:27:16;;;;;;;9.65;7.03;;;27.20;1.00;;;;;;5098899;28;20048;-77
2021/08/13 09:30:14;;;;;;;9.52;7.53;;;27.10;1.00;;;;;;5086580;27;20097;-76
2021/08/13 09:33:08;;;;;;;10.88;7.20;;;26.70;1.00;;;;;;5097570;27;20047;-76
2021/08/13 09:36:01;;;;;;;8.73;6.53;;;27.20;1.00;;;;;;5087859;27;20047;-77
2021/08/13 09:38:51;;;;;;;12.27;8.07;;;26.80;1.00;;;;;;5104340;27;20036;-77
2021/08/13 09:41:51;;;;;;;9.57;7.20;;;27.10;1.00;;;;;;5111366;27;20043;-77
2021/08/13 09:44:41;;;;;;;9.32;7.50;;;27.20;1.00;;;;;;5113145;27;20561;-76
2021/08/13 09:47:44;;;;;;;10.30;7.50;;;27.20;1.00;;;;;;5087531;28;20036;-76
2021/08/13 09:50:38;;;;;;;11.05;7.90;;;27.70;1.00;;;;;;5106174;27;20593;-77
2021/08/13 09:53:26;;;;;;;12.57;7.95;;;27.50;1.00;;;;;;5094473;27;20039;-77
2021/08/13 09:56:26;;;;;;;11.27;7.60;;;27.40;1.00;;;;;;5105992;27;20659;-77
2021/08/13 09:59:16;;;;;;;14.77;7.43;;;27.80;1.00;;;;;;5114698;27;20073;-77
2021/08/13 10:02:12;;;;;;;12.50;7.85;;;28.00;1.00;;;;;;5092541;27;20043;-77
2021/08/13 10:05:17;;;;;;;9.50;7.20;;;28.40;1.00;;;;;;5109552;27;20390;-76
2021/08/13 10:08:07;;;;;;;10.45;7.60;;;27.80;1.00;;;;;;5086560;28;20046;-75
2021/08/13 10:11:11;;;;;;;13.55;7.72;;;27.80;1.00;;;;;;5090100;27;20059;-75
2021/08/13 10:14:04;;;;;;;8.27;7.38;;;27.00;1.00;;;;;;5095038;27;20172;-76
2021/08/13 10:16:53;;;;;;;13.13;7.75;;;27.70;1.00;;;;;;5099179;27;20035;-76
2021/08/13 10:19:42;;;;;;;10.13;7.35;;;28.00;1.00;;;;;;5108500;27;20058;-75
2021/08/13 10:22:33;;;;;;;10.23;6.93;;;27.90;1.00;;;;;;5107113;28;20049;-76
2021/08/13 10:25:22;;;;;;;9.43;6.50;;;27.80;1.00;;;;;;5090073;28;20051;-76
2021/08/13 10:28:11;;;;;;;13.43;7.32;;;28.10;1.00;;;;;;5104350;28;20526;-76
2021/08/13 10:31:04;;;;;;;8.10;6.55;;;28.10;1.00;;;;;;5090341;28;20054;-76
2021/08/13 10:34:00;;;;;;;9.23;7.00;;;27.90;1.00;;;;;;5090023;28;20418;-75
2021/08/13 10:36:50;;;;;;;9.05;6.35;;;27.70;1.00;;;;;;5089567;28;20054;-76
2021/08/13 10:39:42;;;;;;;11.07;7.00;;;28.00;1.00;;;;;;5092643;28;21123;-75
2021/08/13 10:42:35;;;;;;;10.18;6.38;;;28.00;1.00;;;;;;5107739;28;20063;-76
2021/08/13 10:45:26;;;;;;;10.50;7.03;;;28.00;1.00;;;;;;5086354;28;20726;-76
2021/08/13 10:48:21;;;;;;;10.55;6.53;;;28.10;1.00;;;;;;5084332;28;20047;-76
2021/08/13 10:51:09;;;;;;;9.15;6.10;;;28.50;1.00;;;;;;5090443;28;20073;-76
2021/08/13 10:54:06;;;;;;;9.18;6.00;;;28.20;1.00;;;;;;5101781;28;20035;-76
2021/08/13 10:56:59;;;;;;;8.93;6.45;;;28.40;1.00;;;;;;5093112;28;20051;-76
2021/08/13 10:59:57;;;;;;;8.88;5.95;;;28.60;1.00;;;;;;5079089;28;20048;-76
2021/08/13 11:03:18;;;;;;;10.30;6.53;;;28.00;1.00;;;;;;5079181;28;20060;-76
2021/08/13 11:06:09;;;;;;;7.95;5.90;;;28.30;1.00;;;;;;5091867;28;20144;-75
2021/08/13 11:08:59;;;;;;;9.07;6.50;;;28.70;1.00;;;;;;5092874;28;20292;-76
2021/08/13 11:12:06;;;;;;;8.20;6.35;;;28.20;1.00;;;;;;5086432;28;20051;-76
2021/08/13 11:14:57;;;;;;;7.63;6.22;;;28.50;1.00;;;;;;5093535;28;20048;-76
2021/08/13 11:17:54;;;;;;;11.10;6.57;;;28.50;1.00;;;;;;5092158;28;20073;-76
2021/08/13 11:20:44;;;;;;;9.10;6.32;;;28.50;1.00;;;;;;5085047;28;20036;-75
2021/08/13 11:23:33;;;;;;;10.15;6.38;;;28.70;1.00;;;;;;5091324;28;20044;-75
2021/08/13 11:26:56;;;;;;;8.65;6.07;;;28.60;1.00;;;;;;5109758;28;20058;-76
2021/08/13 11:29:50;;;;;;;8.10;6.60;;;28.70;1.00;;;;;;5092746;28;20520;-74
2021/08/13 11:32:45;;;;;;;10.50;6.43;;;29.20;1.00;;;;;;5099215;27;20054;-75
2021/08/13 11:35:37;;;;;;;8.15;6.07;;;29.00;1.00;;;;;;5094464;27;20128;-74
2021/08/13 11:38:59;;;;;;;10.57;6.43;;;29.00;1.00;;;;;;5068905;28;20051;-76
2021/08/13 11:41:48;;;;;;;8.43;5.70;;;29.10;1.00;;;;;;5087830;27;20074;-76
2021/08/13 11:44:37;;;;;;;10.70;6.45;;;29.10;1.00;;;;;;5095093;27;20058;-76
2021/08/13 11:47:28;;;;;;;8.88;6.47;;;29.20;1.00;;;;;;5087728;27;20070;-76
2021/08/13 11:50:17;;;;;;;9.60;6.53;;;29.10;1.00;;;;;;5090458;28;20673;-75
2021/08/13 11:53:06;;;;;;;7.90;6.35;;;29.20;1.00;;;;;;5095485;27;20048;-77
2021/08/13 11:55:55;;;;;;;10.63;6.35;;;29.50;1.00;;;;;;5092189;27;20590;-74
2021/08/13 11:58:43;;;;;;;13.95;6.55;;;29.80;1.00;;;;;;5095309;27;20131;-75
2021/08/13 12:01:48;;;;;;;12.00;6.95;;;30.30;1.00;;;;;;5085838;27;20043;-75
2021/08/13 12:04:40;;;;;;;11.38;7.07;;;30.00;1.00;;;;;;5092993;27;20044;-74
2021/08/13 12:07:29;;;;;;;10.45;6.05;;;29.80;1.00;;;;;;5097519;28;20051;-76
2021/08/13 12:10:18;;;;;;;8.02;6.05;;;30.00;1.00;;;;;;5095451;27;20032;-74
2021/08/13 12:13:08;;;;;;;10.27;6.78;;;30.20;1.00;;;;;;5114314;27;20054;-75
2021/08/13 12:15:59;;;;;;;10.02;6.07;;;30.30;1.00;;;;;;5110003;27;20044;-75
2021/08/13 12:18:48;;;;;;;10.25;5.90;;;29.20;1.00;;;;;;5095539;28;20066;-74
2021/08/13 12:21:52;;;;;;;11.13;6.60;;;29.30;1.00;;;;;;5096968;27;20046;-74
2021/08/13 12:24:41;;;;;;;9.65;6.25;;;29.50;1.00;;;;;;5101102;27;20203;-75
2021/08/13 12:27:31;;;;;;;11.75;6.18;;;29.40;1.00;;;;;;5098584;27;20043;-75
2021/08/13 12:30:21;;;;;;;11.15;6.63;;;29.40;1.00;;;;;;5093991;28;20048;-75
2021/08/13 12:33:17;;;;;;;8.38;6.43;;;29.50;1.00;;;;;;5106575;27;20059;-75
2021/08/13 12:36:15;;;;;;;10.75;6.30;;;29.30;1.00;;;;;;5096584;27;20048;-75
2021/08/13 12:39:08;;;;;;;8.05;5.30;;;29.60;1.00;;;;;;5089522;28;20597;-76
2021/08/13 12:41:57;;;;;;;10.73;5.32;;;29.80;1.00;;;;;;5094016;28;20089;-77
2021/08/13 12:44:46;;;;;;;8.75;5.70;;;30.20;1.00;;;;;;5088555;28;20071;-75
2021/08/13 12:47:35;;;;;;;10.82;6.15;;;30.10;1.00;;;;;;5086035;28;20688;-74
2021/08/13 12:50:24;;;;;;;9.40;5.75;;;30.30;1.00;;;;;;5108435;28;20113;-74
2021/08/13 12:53:14;;;;;;;9.55;5.97;;;29.90;1.00;;;;;;5083309;27;20054;-75
2021/08/13 12:56:18;;;;;;;10.65;5.60;;;29.70;1.00;;;;;;5092369;28;20503;-75
2021/08/13 12:59:11;;;;;;;7.72;5.55;;;29.60;1.00;;;;;;5091357;27;20130;-74
2021/08/13 13:02:05;;;;;;;8.57;5.75;;;29.70;1.00;;;;;;5093669;28;20047;-74
2021/08/13 13:05:05;;;;;;;9.57;5.13;;;30.00;1.00;;;;;;5086004;28;20058;-76
2021/08/13 13:07:58;;;;;;;6.55;4.97;;;30.60;1.00;;;;;;5109320;27;20051;-74
2021/08/13 13:10:49;;;;;;;6.38;4.78;;;30.40;1.00;;;;;;5098650;27;20043;-75
2021/08/13 13:13:47;;;;;;;8.23;5.43;;;30.40;1.00;;;;;;5098453;27;20088;-75
2021/08/13 13:16:41;;;;;;;8.48;5.10;;;29.80;1.00;;;;;;5087846;27;20051;-75
2021/08/13 13:19:29;;;;;;;8.38;5.38;;;30.30;1.00;;;;;;5112864;27;20115;-76
2021/08/13 13:22:21;;;;;;;12.23;5.75;;;29.90;1.00;;;;;;5095187;28;20049;-76
2021/08/13 13:25:12;;;;;;;8.27;5.38;;;29.60;1.00;;;;;;5115045;27;20051;-75
2021/08/13 13:28:29;;;;;;;10.15;6.15;;;29.70;1.00;;;;;;5090003;28;20046;-75
2021/08/13 13:31:40;;;;;;;7.40;5.28;;;29.80;1.00;;;;;;5103913;28;20040;-74
2021/08/13 13:34:39;;;;;;;8.70;5.80;;;29.90;1.00;;;;;;5090235;28;20074;-75
2021/08/13 13:37:50;;;;;;;7.10;5.40;;;30.00;1.00;;;;;;5101365;27;20134;-75
2021/08/13 13:40:43;;;;;;;9.32;5.40;;;30.10;1.00;;;;;;5077953;28;20110;-76
2021/08/13 13:43:32;;;;;;;7.25;4.93;;;30.00;1.00;;;;;;5096831;27;20146;-76
2021/08/13 13:46:20;;;;;;;9.18;5.35;;;30.10;1.00;;;;;;5092079;27;20128;-75
2021/08/13 13:49:12;;;;;;;6.03;5.22;;;29.80;1.00;;;;;;5092780;28;20051;-75
2021/08/13 13:52:00;;;;;;;12.15;5.53;;;30.10;1.00;;;;;;5091630;27;20406;-74
2021/08/13 13:54:49;;;;;;;9.82;5.50;;;29.80;1.00;;;;;;5101449;27;20505;-75
2021/08/13 13:57:38;;;;;;;9.13;5.47;;;30.30;1.00;;;;;;5096458;27;20047;-76
2021/08/13 14:00:29;;;;;;;10.15;5.72;;;30.50;1.00;;;;;;5083815;28;20079;-75
2021/08/13 14:03:17;;;;;;;8.75;5.30;;;29.80;1.00;;;;;;5110297;27;20071;-75
2021/08/13 14:06:08;;;;;;;6.95;5.35;;;30.00;1.00;;;;;;5103272;27;20486;-74
2021/08/13 14:08:56;;;;;;;7.20;5.50;;;30.00;1.00;;;;;;5086514;27;20049;-74
2021/08/13 14:11:45;;;;;;;7.82;5.40;;;29.90;1.00;;;;;;5093101;28;20047;-74
2021/08/13 14:14:34;;;;;;;6.90;5.32;;;30.00;1.00;;;;;;5092987;28;20102;-74
2021/08/13 14:17:23;;;;;;;18.10;5.93;;;30.00;1.00;;;;;;5104028;27;20055;-75
2021/08/13 14:20:13;;;;;;;7.47;5.63;;;30.10;1.00;;;;;;5097870;28;20165;-75
2021/08/13 14:23:03;;;;;;;7.68;5.63;;;29.80;1.00;;;;;;5100287;28;20490;-76
2021/08/13 14:25:55;;;;;;;9.55;5.93;;;29.50;1.00;;;;;;5092739;28;20061;-75
2021/08/13 14:28:44;;;;;;;6.07;4.97;;;30.00;1.00;;;;;;5092270;28;20050;-74
2021/08/13 14:31:32;;;;;;;10.20;5.75;;;30.20;1.00;;;;;;5099305;28;20054;-74
2021/08/13 14:34:21;;;;;;;7.57;5.25;;;29.80;1.00;;;;;;5099742;28;20051;-76
2021/08/13 14:37:10;;;;;;;8.15;5.53;;;29.80;1.00;;;;;;5097535;28;20058;-75
2021/08/13 14:40:00;;;;;;;7.50;5.05;;;30.00;1.00;;;;;;5111785;28;20493;-75
2021/08/13 14:42:48;;;;;;;7.70;5.70;;;30.00;1.00;;;;;;5110700;28;20126;-72
2021/08/13 14:45:40;;;;;;;7.22;5.07;;;30.10;1.00;;;;;;5113454;28;20118;-74
2021/08/13 14:48:29;;;;;;;9.65;5.90;;;30.10;1.00;;;;;;5110652;28;20054;-74
2021/08/13 14:51:18;;;;;;;8.52;5.60;;;30.30;1.00;;;;;;5092022;28;20040;-74